createdAt,value
2017-12-12T00:02:00.368Z,22.70
2017-12-12T00:04:28.773Z,22.10
2017-12-12T00:06:56.904Z,21.17
2017-12-12T00:09:24.443Z,22.13
2017-12-12T00:11:51.991Z,19.90
2017-12-12T00:14:20.284Z,18.53
2017-12-12T00:16:47.841Z,17.70
2017-12-12T00:19:15.574Z,18.90
2017-12-12T00:21:43.099Z,16.83
2017-12-12T00:24:10.644Z,17.97
2017-12-12T00:26:38.375Z,20.33
2017-12-12T00:29:06.087Z,18.87
2017-12-12T00:31:33.682Z,19.07
2017-12-12T00:34:01.973Z,17.93
2017-12-12T00:36:30.334Z,21.97
2017-12-12T00:38:59.586Z,21.83
2017-12-12T00:41:29.392Z,20.10
2017-12-12T00:43:57.785Z,19.67
2017-12-12T00:46:26.370Z,18.57
2017-12-12T00:48:54.841Z,20.50
2017-12-12T00:51:22.386Z,20.20
2017-12-12T00:53:50.138Z,19.48
2017-12-12T00:56:18.477Z,19.23
2017-12-12T00:58:46.265Z,18.00
2017-12-12T01:01:13.841Z,19.63
2017-12-12T01:03:42.134Z,17.40
2017-12-12T01:06:09.821Z,18.10
2017-12-12T01:08:37.793Z,17.90
2017-12-12T01:11:05.659Z,15.73
2017-12-12T01:13:33.422Z,17.00
2017-12-12T01:16:01.703Z,18.07
2017-12-12T01:18:30.013Z,17.80
2017-12-12T01:20:59.328Z,16.43
2017-12-12T01:23:28.886Z,17.07
2017-12-12T01:25:59.002Z,15.43
2017-12-12T01:28:26.608Z,15.52
2017-12-12T01:30:54.167Z,15.87
2017-12-12T01:33:22.491Z,14.57
2017-12-12T01:35:50.033Z,12.37
2017-12-12T01:38:17.583Z,11.50
2017-12-12T01:40:45.897Z,12.18
2017-12-12T01:43:13.417Z,12.33
2017-12-12T01:45:40.973Z,13.23
2017-12-12T01:48:08.647Z,12.10
2017-12-12T01:50:37.989Z,10.10
2017-12-12T01:53:05.757Z,10.37
2017-12-12T01:55:34.441Z,12.27
2017-12-12T01:58:02.533Z,11.63
2017-12-12T02:00:34.317Z,10.10
2017-12-12T02:03:02.278Z,11.13
2017-12-12T02:05:31.958Z,12.43
2017-12-12T02:08:01.416Z,11.98
2017-12-12T02:10:31.000Z,11.17
2017-12-12T02:12:59.560Z,12.03
2017-12-12T02:15:29.043Z,10.73
2017-12-12T02:17:58.399Z,13.60
2017-12-12T02:20:27.554Z,12.70
2017-12-12T02:22:55.915Z,13.13
2017-12-12T02:25:23.549Z,11.63
2017-12-12T02:27:51.848Z,13.70
2017-12-12T02:30:19.418Z,14.03
2017-12-12T02:32:46.962Z,13.33
2017-12-12T02:35:14.477Z,12.70
2017-12-12T02:37:42.108Z,13.80
2017-12-12T02:40:09.755Z,13.20
2017-12-12T02:42:37.837Z,14.13
2017-12-12T02:45:05.556Z,12.23
2017-12-12T02:47:33.449Z,14.57
2017-12-12T02:50:01.873Z,17.83
2017-12-12T02:52:30.148Z,17.00
2017-12-12T02:54:58.392Z,17.40
2017-12-12T02:57:27.094Z,17.60
2017-12-12T02:59:55.477Z,17.83
2017-12-12T03:02:23.000Z,16.97
2017-12-12T03:04:51.330Z,15.07
2017-12-12T03:07:19.047Z,13.87
2017-12-12T03:09:47.338Z,15.50
2017-12-12T03:12:14.878Z,16.43
2017-12-12T03:14:43.305Z,15.67
2017-12-12T03:17:10.981Z,15.23
2017-12-12T03:19:38.956Z,15.80
2017-12-12T03:22:06.653Z,14.80
2017-12-12T03:24:35.100Z,15.53
2017-12-12T03:27:02.897Z,12.33
2017-12-12T03:29:31.963Z,15.90
2017-12-12T03:32:00.215Z,16.07
2017-12-12T03:34:29.096Z,16.20
2017-12-12T03:36:58.331Z,14.40
2017-12-12T03:39:25.965Z,13.27
2017-12-12T03:41:53.562Z,14.00
2017-12-12T03:44:21.089Z,14.50
2017-12-12T03:46:49.331Z,13.63
2017-12-12T03:49:17.657Z,12.53
2017-12-12T03:51:45.177Z,12.60
2017-12-12T03:54:12.766Z,11.10
2017-12-12T03:56:40.440Z,11.53
2017-12-12T03:59:08.106Z,12.57
2017-12-12T04:01:35.903Z,11.23
2017-12-12T04:04:04.393Z,11.17
2017-12-12T04:06:32.490Z,10.90
2017-12-12T04:09:02.310Z,10.77
2017-12-12T04:11:31.541Z,11.67
2017-12-12T04:14:00.625Z,11.00
2017-12-12T04:16:30.441Z,8.63
2017-12-12T04:19:00.060Z,12.30
2017-12-12T04:21:29.679Z,12.70
2017-12-12T04:23:58.997Z,10.68
2017-12-12T04:26:27.119Z,12.97
2017-12-12T04:28:55.117Z,11.67
2017-12-12T04:31:22.669Z,13.85
2017-12-12T04:33:50.191Z,11.67
2017-12-12T04:36:17.716Z,11.53
2017-12-12T04:38:45.264Z,13.60
2017-12-12T04:41:12.811Z,12.37
2017-12-12T04:43:40.433Z,12.87
2017-12-12T04:46:08.310Z,13.40
2017-12-12T04:48:36.155Z,13.10
2017-12-12T04:51:03.882Z,13.40
2017-12-12T04:53:32.444Z,14.37
2017-12-12T04:56:00.612Z,14.37
2017-12-12T04:58:29.389Z,14.47
2017-12-12T05:00:57.589Z,16.47
2017-12-12T05:03:25.150Z,14.90
2017-12-12T05:05:52.723Z,12.77
2017-12-12T05:08:20.265Z,15.30
2017-12-12T05:10:47.802Z,16.43
2017-12-12T05:13:15.334Z,13.90
2017-12-12T05:15:43.649Z,13.10
2017-12-12T05:18:11.169Z,14.50
2017-12-12T05:20:39.521Z,12.93
2017-12-12T05:23:08.637Z,14.90
2017-12-12T05:25:37.475Z,13.47
2017-12-12T05:28:23.710Z,13.93
2017-12-12T05:30:52.162Z,12.70
2017-12-12T05:33:19.710Z,13.10
2017-12-12T05:35:47.241Z,15.80
2017-12-12T05:38:15.525Z,15.40
2017-12-12T05:40:43.186Z,15.67
2017-12-12T05:43:11.477Z,15.00
2017-12-12T05:45:39.150Z,14.13
2017-12-12T05:48:06.849Z,15.50
2017-12-12T05:50:34.487Z,13.80
2017-12-12T05:53:02.372Z,14.87
2017-12-12T05:55:30.711Z,15.90
2017-12-12T05:57:59.512Z,15.63
2017-12-12T06:00:27.481Z,14.87
2017-12-12T06:02:55.834Z,14.73
2017-12-12T06:05:23.501Z,13.73
2017-12-12T06:07:51.042Z,14.00
2017-12-12T06:10:18.600Z,15.33
2017-12-12T06:12:46.125Z,14.83
2017-12-12T06:15:13.657Z,14.87
2017-12-12T06:17:41.210Z,13.27
2017-12-12T06:20:09.332Z,14.97
2017-12-12T06:22:38.397Z,14.37
2017-12-12T06:25:06.643Z,14.53
2017-12-12T06:27:35.827Z,14.90
2017-12-12T06:30:04.046Z,13.63
2017-12-12T06:32:32.221Z,13.13
2017-12-12T06:35:00.108Z,12.13
2017-12-12T06:37:29.139Z,12.77
2017-12-12T06:39:56.952Z,14.83
2017-12-12T06:42:24.957Z,12.73
2017-12-12T06:44:52.572Z,13.53
2017-12-12T06:47:20.137Z,14.90
2017-12-12T06:49:47.696Z,14.47
2017-12-12T06:52:15.212Z,12.53
2017-12-12T06:54:42.826Z,14.70
2017-12-12T06:57:10.364Z,13.73
2017-12-12T06:59:38.485Z,12.27
2017-12-12T07:02:06.349Z,12.40
2017-12-12T07:04:33.906Z,12.60
2017-12-12T07:07:01.545Z,11.43
2017-12-12T07:09:29.214Z,11.57
2017-12-12T07:11:57.175Z,11.80
2017-12-12T07:14:24.771Z,11.07
2017-12-12T07:16:52.437Z,11.37
2017-12-12T07:19:20.258Z,9.80
2017-12-12T07:21:48.461Z,12.20
2017-12-12T07:24:16.033Z,12.83
2017-12-12T07:26:43.601Z,12.53
2017-12-12T07:29:11.445Z,11.87
2017-12-12T07:31:40.831Z,11.37
2017-12-12T07:34:09.034Z,10.63
2017-12-12T07:36:38.066Z,14.00
2017-12-12T07:39:06.794Z,11.97
2017-12-12T07:41:34.485Z,13.83
2017-12-12T07:44:02.728Z,11.50
2017-12-12T07:46:30.967Z,12.23
2017-12-12T07:49:00.417Z,12.40
2017-12-12T07:51:29.448Z,12.20
2017-12-12T07:53:57.655Z,11.77
2017-12-12T07:56:25.401Z,11.13
2017-12-12T07:58:54.829Z,10.50
2017-12-12T08:01:22.814Z,11.33
2017-12-12T08:03:51.164Z,10.37
2017-12-12T08:06:19.467Z,11.17
2017-12-12T08:08:47.028Z,11.50
2017-12-12T08:11:14.554Z,8.97
2017-12-12T08:13:42.899Z,9.37
2017-12-12T08:16:10.426Z,9.80
2017-12-12T08:18:38.209Z,8.67
2017-12-12T08:21:06.059Z,8.93
2017-12-12T08:23:34.770Z,8.40
2017-12-12T08:26:02.519Z,9.70
2017-12-12T08:28:30.404Z,7.57
2017-12-12T08:30:59.882Z,9.87
2017-12-12T08:33:30.813Z,9.00
2017-12-12T08:35:59.165Z,8.80
2017-12-12T08:38:26.818Z,9.63
2017-12-12T08:40:55.141Z,8.50
2017-12-12T08:43:23.008Z,9.27
2017-12-12T08:45:50.646Z,9.17
2017-12-12T08:48:18.207Z,10.73
2017-12-12T08:50:45.797Z,11.43
2017-12-12T08:53:13.337Z,10.67
2017-12-12T08:55:40.861Z,10.17
2017-12-12T08:58:08.461Z,10.33
2017-12-12T09:00:36.056Z,11.00
2017-12-12T09:03:03.828Z,10.70
2017-12-12T09:05:32.020Z,11.07
2017-12-12T09:08:00.178Z,10.77
2017-12-12T09:10:28.118Z,11.23
2017-12-12T09:12:55.985Z,11.47
2017-12-12T09:15:23.601Z,10.23
2017-12-12T09:17:51.125Z,10.37
2017-12-12T09:20:18.657Z,10.87
2017-12-12T09:22:46.203Z,9.83
2017-12-12T09:25:13.782Z,11.37
2017-12-12T09:27:41.365Z,10.60
2017-12-12T09:30:08.893Z,9.47
2017-12-12T09:32:36.778Z,11.67
2017-12-12T09:35:04.897Z,10.37
2017-12-12T09:37:32.905Z,13.07
2017-12-12T09:40:00.928Z,10.27
2017-12-12T09:42:29.075Z,8.93
2017-12-12T09:44:56.737Z,11.00
2017-12-12T09:47:24.795Z,11.10
2017-12-12T09:49:52.377Z,10.07
2017-12-12T09:52:20.025Z,11.10
2017-12-12T09:54:47.565Z,9.97
2017-12-12T09:57:15.093Z,9.37
2017-12-12T09:59:43.435Z,8.83
2017-12-12T10:02:10.957Z,9.30
2017-12-12T10:04:38.632Z,7.93
2017-12-12T10:07:06.245Z,8.47
2017-12-12T10:09:33.906Z,9.83
2017-12-12T10:12:02.114Z,10.50
2017-12-12T10:14:30.065Z,7.40
2017-12-12T10:16:57.770Z,8.77
2017-12-12T10:19:25.322Z,10.37
2017-12-12T10:21:52.915Z,8.77
2017-12-12T10:24:20.762Z,7.67
2017-12-12T10:26:48.312Z,8.37
2017-12-12T10:29:15.853Z,7.43
2017-12-12T10:31:43.381Z,9.20
2017-12-12T10:34:10.988Z,7.87
2017-12-12T10:36:38.670Z,8.43
2017-12-12T10:39:06.319Z,7.77
2017-12-12T10:41:34.384Z,8.33
2017-12-12T10:44:02.401Z,7.73
2017-12-12T10:46:30.230Z,8.60
2017-12-12T10:48:58.711Z,7.43
2017-12-12T10:51:26.318Z,6.80
2017-12-12T10:53:55.044Z,7.87
2017-12-12T10:56:23.009Z,8.17
2017-12-12T10:58:50.801Z,6.63
2017-12-12T11:01:19.147Z,7.20
2017-12-12T11:03:47.454Z,7.67
2017-12-12T11:06:14.987Z,7.50
2017-12-12T11:08:43.404Z,6.50
2017-12-12T11:11:11.023Z,6.40
2017-12-12T11:13:39.310Z,6.53
2017-12-12T11:16:07.809Z,6.73
2017-12-12T11:18:35.692Z,5.90
2017-12-12T11:21:03.672Z,6.23
2017-12-12T11:23:31.330Z,6.50
2017-12-12T11:25:59.389Z,6.50
2017-12-12T11:28:27.100Z,7.37
2017-12-12T11:30:54.945Z,7.30
2017-12-12T11:33:22.615Z,7.20
2017-12-12T11:35:50.936Z,7.23
2017-12-12T11:38:18.497Z,7.70
2017-12-12T11:40:46.046Z,7.87
2017-12-12T11:43:14.335Z,8.57
2017-12-12T11:45:41.899Z,7.60
2017-12-12T11:48:10.182Z,7.47
2017-12-12T11:50:37.822Z,6.93
2017-12-12T11:53:05.451Z,7.80
2017-12-12T11:55:34.101Z,7.73
2017-12-12T11:58:02.788Z,8.53
2017-12-12T12:00:30.508Z,7.63
2017-12-12T12:02:59.438Z,6.77
2017-12-12T12:05:27.413Z,7.47
2017-12-12T12:07:55.845Z,5.83
2017-12-12T12:10:24.479Z,6.73
2017-12-12T12:12:52.145Z,7.97
2017-12-12T12:15:19.804Z,8.23
2017-12-12T12:17:47.329Z,8.07
2017-12-12T12:20:15.615Z,7.77
2017-12-12T12:22:44.413Z,8.47
2017-12-12T12:25:11.939Z,8.93
2017-12-12T12:27:40.388Z,8.87
2017-12-12T12:30:08.238Z,10.70
2017-12-12T12:32:36.112Z,12.07
2017-12-12T12:35:04.063Z,10.17
2017-12-12T12:37:33.174Z,10.40
2017-12-12T12:40:01.448Z,9.83
2017-12-12T12:42:31.035Z,11.40
2017-12-12T12:44:59.433Z,11.53
2017-12-12T12:47:29.129Z,9.73
2017-12-12T12:49:57.218Z,11.53
2017-12-12T12:52:25.187Z,11.27
2017-12-12T12:54:52.716Z,10.93
2017-12-12T12:57:21.009Z,12.27
2017-12-12T12:59:48.591Z,13.10
2017-12-12T13:02:16.140Z,11.50
2017-12-12T13:04:43.819Z,13.10
2017-12-12T13:07:12.125Z,12.87
2017-12-12T13:09:40.382Z,14.33
2017-12-12T13:12:08.005Z,13.93
2017-12-12T13:14:36.198Z,13.63
2017-12-12T13:17:05.294Z,16.33
2017-12-12T13:19:33.876Z,17.37
2017-12-12T13:22:02.119Z,18.97
2017-12-12T13:24:30.987Z,22.17
2017-12-12T13:26:59.831Z,23.07
2017-12-12T13:29:27.913Z,19.93
2017-12-12T13:31:55.517Z,16.50
2017-12-12T13:34:23.913Z,14.70
2017-12-12T13:36:51.481Z,13.77
2017-12-12T13:39:19.766Z,11.67
2017-12-12T13:41:47.326Z,10.53
2017-12-12T13:44:14.860Z,15.03
2017-12-12T13:46:43.159Z,15.97
2017-12-12T13:49:10.793Z,14.23
2017-12-12T13:51:39.095Z,13.77
2017-12-12T13:54:06.985Z,14.97
2017-12-12T13:56:34.623Z,13.50
2017-12-12T13:59:02.410Z,15.57
2017-12-12T14:01:30.492Z,13.93
2017-12-12T14:03:58.236Z,14.03
2017-12-12T14:06:25.934Z,13.23
2017-12-12T14:08:54.969Z,12.93
2017-12-12T14:11:23.743Z,14.30
2017-12-12T14:13:51.664Z,15.07
2017-12-12T14:16:19.249Z,15.77
2017-12-12T14:18:47.601Z,15.07
2017-12-12T14:21:15.127Z,16.27
2017-12-12T14:23:43.414Z,16.97
2017-12-12T14:26:11.789Z,13.80
2017-12-12T14:28:40.165Z,14.27
2017-12-12T14:31:07.752Z,13.83
2017-12-12T14:33:35.361Z,14.80
2017-12-12T14:36:03.169Z,15.07
2017-12-12T14:38:31.438Z,14.00
2017-12-12T14:40:59.266Z,15.23
2017-12-12T14:43:27.521Z,15.70
2017-12-12T14:45:55.081Z,17.77
2017-12-12T14:48:22.752Z,14.60
2017-12-12T14:50:50.345Z,16.73
2017-12-12T14:53:18.665Z,14.90
2017-12-12T14:55:46.441Z,16.30
2017-12-12T14:58:13.969Z,17.80
2017-12-12T15:00:41.585Z,20.33
2017-12-12T15:03:09.417Z,20.70
2017-12-12T15:05:37.301Z,20.13
2017-12-12T15:08:05.446Z,19.80
2017-12-12T15:10:33.383Z,21.17
2017-12-12T15:13:01.368Z,21.17
2017-12-12T15:15:30.186Z,21.97
2017-12-12T15:17:58.963Z,20.77
2017-12-12T15:20:26.842Z,23.03
2017-12-12T15:22:55.244Z,23.07
2017-12-12T15:25:23.914Z,23.37
2017-12-12T15:27:51.499Z,24.40
2017-12-12T15:30:19.109Z,23.63
2017-12-12T15:32:46.745Z,24.47
2017-12-12T15:35:14.266Z,24.20
2017-12-12T15:37:41.793Z,25.53
2017-12-12T15:40:09.355Z,25.77
2017-12-12T15:42:37.139Z,25.47
2017-12-12T15:45:05.310Z,26.60
2017-12-12T15:47:34.331Z,26.53
2017-12-12T15:50:02.635Z,26.03
2017-12-12T15:52:31.675Z,28.20
2017-12-12T15:55:00.135Z,27.97
2017-12-12T15:57:28.341Z,25.47
2017-12-12T15:59:56.100Z,24.37
2017-12-12T16:02:23.974Z,29.73
2017-12-12T16:04:51.519Z,29.77
2017-12-12T16:07:19.086Z,28.67
2017-12-12T16:09:46.681Z,26.30
2017-12-12T16:12:14.251Z,28.63
2017-12-12T16:14:41.795Z,29.00
2017-12-12T16:17:09.584Z,27.40
2017-12-12T16:19:37.601Z,35.83
2017-12-12T16:22:06.450Z,34.43
2017-12-12T16:24:35.337Z,28.73
2017-12-12T16:27:03.925Z,45.23
2017-12-12T16:29:33.650Z,29.37
2017-12-12T16:32:02.848Z,27.27
2017-12-12T16:34:31.932Z,27.43
2017-12-12T16:37:01.561Z,24.77
2017-12-12T16:39:32.270Z,26.10
2017-12-12T16:42:01.901Z,23.67
2017-12-12T16:44:32.291Z,25.70
2017-12-12T16:47:02.482Z,24.70
2017-12-12T16:49:31.999Z,25.37
2017-12-12T16:52:00.509Z,23.47
2017-12-12T16:54:31.393Z,22.20
2017-12-12T16:57:00.926Z,21.27
2017-12-12T16:59:29.282Z,22.20
2017-12-12T17:01:56.947Z,21.97
2017-12-12T17:04:24.504Z,20.33
2017-12-12T17:06:52.192Z,21.33
2017-12-12T17:09:20.126Z,21.67
2017-12-12T17:11:47.652Z,21.63
2017-12-12T17:14:15.190Z,22.23
2017-12-12T17:16:42.712Z,21.43
2017-12-12T17:19:10.276Z,22.03
2017-12-12T17:21:37.838Z,21.13
2017-12-12T17:24:05.693Z,22.17
2017-12-12T17:26:33.807Z,21.07
2017-12-12T17:29:01.641Z,22.60
2017-12-12T17:31:29.568Z,22.97
2017-12-12T17:33:58.309Z,22.07
2017-12-12T17:36:25.833Z,22.73
2017-12-12T17:38:53.726Z,22.90
2017-12-12T17:41:22.732Z,23.73
2017-12-12T17:43:50.418Z,24.13
2017-12-12T17:46:20.503Z,23.07
2017-12-12T17:48:49.306Z,23.60
2017-12-12T17:51:19.425Z,22.20
2017-12-12T17:53:47.074Z,20.77
2017-12-12T17:56:14.753Z,21.93
2017-12-12T17:58:43.113Z,21.20
2017-12-12T18:01:12.120Z,20.83
2017-12-12T18:03:40.772Z,22.07
2017-12-12T18:06:10.096Z,21.33
2017-12-12T18:08:39.908Z,20.93
2017-12-12T18:11:07.991Z,22.70
2017-12-12T18:13:38.765Z,21.17
2017-12-12T18:16:08.376Z,21.27
2017-12-12T18:18:37.963Z,19.07
2017-12-12T18:21:07.028Z,18.17
2017-12-12T18:23:35.506Z,19.00
2017-12-12T18:26:04.269Z,19.97
2017-12-12T18:28:32.363Z,18.53
2017-12-12T18:31:01.374Z,18.50
2017-12-12T18:33:29.644Z,17.23
2017-12-12T18:35:57.717Z,19.33
2017-12-12T18:38:25.951Z,18.77
2017-12-12T18:40:54.752Z,16.87
2017-12-12T18:43:22.752Z,15.47
2017-12-12T18:45:50.343Z,16.27
2017-12-12T18:48:19.374Z,15.37
2017-12-12T18:50:47.661Z,15.93
2017-12-12T18:53:15.236Z,15.43
2017-12-12T18:55:43.536Z,14.27
2017-12-12T18:58:11.479Z,15.50
2017-12-12T19:00:39.438Z,14.00
2017-12-12T19:03:08.348Z,14.77
2017-12-12T19:05:36.678Z,15.00
2017-12-12T19:08:06.618Z,14.23
2017-12-12T19:10:35.719Z,15.10
2017-12-12T19:13:04.392Z,13.07
2017-12-12T19:15:33.455Z,14.33
2017-12-12T19:18:03.386Z,14.40
2017-12-12T19:20:32.842Z,14.63
2017-12-12T19:23:02.285Z,12.27
2017-12-12T19:25:31.363Z,13.20
2017-12-12T19:27:59.897Z,13.07
2017-12-12T19:30:29.326Z,12.20
2017-12-12T19:33:09.639Z,11.33
2017-12-12T19:35:37.515Z,10.87
2017-12-12T19:38:05.875Z,10.63
2017-12-12T19:40:34.325Z,11.03
2017-12-12T19:43:01.985Z,11.63
2017-12-12T19:45:29.956Z,10.80
2017-12-12T19:48:02.359Z,10.33
2017-12-12T19:50:41.761Z,10.03
2017-12-12T19:53:22.684Z,10.87
2017-12-12T19:55:51.116Z,10.73
2017-12-12T19:58:18.671Z,10.90
2017-12-12T20:00:47.147Z,9.90
2017-12-12T20:03:14.839Z,11.63
2017-12-12T20:05:43.050Z,10.53
2017-12-12T20:08:12.246Z,11.00
2017-12-12T20:10:40.170Z,11.87
2017-12-12T20:13:07.869Z,10.40
2017-12-12T20:15:35.912Z,12.30
2017-12-12T20:18:05.114Z,12.13
2017-12-12T20:20:32.790Z,12.30
2017-12-12T20:23:00.839Z,12.03
2017-12-12T20:25:28.876Z,11.83
2017-12-12T20:27:57.315Z,11.17
2017-12-12T20:30:24.998Z,11.40
2017-12-12T20:32:52.545Z,11.77
2017-12-12T20:35:20.105Z,12.10
2017-12-12T20:37:47.637Z,11.80
2017-12-12T20:40:16.343Z,12.17
2017-12-12T20:42:43.925Z,12.93
2017-12-12T20:45:12.898Z,12.03
2017-12-12T20:47:40.642Z,11.70
2017-12-12T20:50:08.538Z,12.70
2017-12-12T20:55:10.838Z,13.13
2017-12-12T20:57:38.485Z,13.53
2017-12-12T21:00:06.074Z,10.67
2017-12-12T21:02:33.886Z,11.67
2017-12-12T21:05:01.556Z,11.60
2017-12-12T21:07:34.770Z,11.93
2017-12-12T21:10:02.655Z,10.03
2017-12-12T21:12:35.109Z,12.03
2017-12-12T21:15:02.738Z,10.83
2017-12-12T21:17:31.128Z,11.50
2017-12-12T21:19:58.994Z,13.07
2017-12-12T21:22:26.861Z,11.73
2017-12-12T21:24:55.230Z,11.83
2017-12-12T21:27:23.617Z,11.88
2017-12-12T21:29:51.148Z,10.55
2017-12-12T21:32:18.847Z,10.73
2017-12-12T21:34:46.455Z,12.00
2017-12-12T21:37:14.228Z,11.00
2017-12-12T21:39:42.544Z,11.27
2017-12-12T21:42:10.103Z,11.57
2017-12-12T21:44:38.026Z,11.13
2017-12-12T21:47:05.613Z,10.40
2017-12-12T21:49:33.200Z,10.75
2017-12-12T21:52:00.964Z,10.88
2017-12-12T21:54:28.849Z,15.48
2017-12-12T21:56:56.809Z,9.93
2017-12-12T21:59:25.185Z,13.25
2017-12-12T22:01:52.724Z,9.70
2017-12-12T22:04:20.296Z,11.20
2017-12-12T22:06:47.825Z,9.87
2017-12-12T22:09:16.118Z,9.48
2017-12-12T22:11:43.682Z,10.32
2017-12-12T22:14:11.201Z,9.27
2017-12-12T22:16:39.106Z,9.23
2017-12-12T22:19:07.500Z,9.27
2017-12-12T22:21:36.913Z,7.53
2017-12-12T22:24:05.198Z,9.45
2017-12-12T22:26:33.902Z,8.75
2017-12-12T22:29:03.562Z,10.10
2017-12-12T22:31:33.800Z,15.50
2017-12-12T22:34:03.135Z,22.08
2017-12-12T22:36:32.276Z,15.07
2017-12-12T22:39:03.130Z,12.25
2017-12-12T22:41:32.427Z,8.15
2017-12-12T22:44:01.619Z,7.85
2017-12-12T22:46:30.883Z,9.40
2017-12-12T22:48:59.893Z,8.43
2017-12-12T22:51:28.054Z,8.10
2017-12-12T22:53:56.665Z,8.53
2017-12-12T22:56:25.251Z,8.73
2017-12-12T22:58:53.480Z,8.63
2017-12-12T23:01:21.273Z,8.90
2017-12-12T23:03:48.847Z,9.43
2017-12-12T23:06:16.400Z,7.53
2017-12-12T23:08:44.841Z,9.48
2017-12-12T23:11:13.940Z,8.30
2017-12-12T23:13:41.774Z,9.10
2017-12-12T23:16:09.317Z,9.00
2017-12-12T23:18:37.183Z,9.27
2017-12-12T23:21:05.745Z,8.32
2017-12-12T23:23:34.474Z,8.75
2017-12-12T23:26:02.655Z,9.30
2017-12-12T23:28:30.965Z,8.07
2017-12-12T23:30:59.474Z,7.30
2017-12-12T23:33:27.527Z,7.78
2017-12-12T23:35:55.128Z,8.88
2017-12-12T23:38:22.792Z,9.50
2017-12-12T23:40:50.329Z,9.65
2017-12-12T23:43:18.750Z,9.95
2017-12-12T23:45:46.289Z,9.77
2017-12-12T23:48:13.867Z,8.20
2017-12-12T23:50:42.257Z,9.50
2017-12-12T23:53:09.808Z,10.20
2017-12-12T23:55:37.610Z,9.52
2017-12-12T23:58:06.152Z,9.70
